Airfield :







YOU CAN JOIN US ON...

 
LOGIN :

Register | Disclaimer

   EN    FR    IT 

 









Legend :    VFR   Marginal VFR   IFR   Intensive IFR   Very Intensive IFR
Visi :
Ceiling :
>= 8 km
>= 3000ft
5 to 8 km
1000 to 3000 ft
1500m to 5 km
500 to 1000 ft
800 to 1500m
200 to 500 ft
< 800m
< 200 ft
Symbols :   Thunderstorms  Fog  Heavy snow  Heavy precipitations  Wind > 20 kt






- Airport Elevation : 270 ft
- IATA code : YMX


CYMX - Montreal International Mirabel

CURRENT METAR :
  • 190900Z 21005KT 4SM BR FEW007 BKN018 17/16 A2960 RMK SF1SC6 SLP024 DENSITY ALT 900FT

EXPIRED METARs :
  • 190800Z 21005KT 20SM OVC030 16/16 A2961 RMK SC8 SLP028 DENSITY ALT 900FT
  • 190700Z 23004KT 200V280 25SM BKN130 16/16 A2961 RMK AC5 SLP028 DENSITY ALT 900FT

TAF TAF CYMX
Valid from the 19 at 06:00 until the 20 at 06:00 UTC


190543Z 1906/2006 23015G25KT P6SM -SHRA OVC030
TEMPO 1906/1907 4SM -RA BR BKN009 OVC015
PROB30 1906/1907 2SM TSRA BR BKN007 OVC015CB
FM190700 23012KT 6SM -RA -DZ BR OVC010
TEMPO 1907/1911 P6SM NSW BKN030
FM191100 23012KT P6SM SCT020
TEMPO 1911/1914 BKN020
FM191400 24010G20KT P6SM SCT040
FM191700 28012G22KT P6SM BKN070
TEMPO 1917/1921 P6SM -SHRA VCTS FEW050CB BKN070
FM200000 27012KT P6SM SCT070
BECMG 2002/2004 32005KT RMK NXT FCST BY 191200Z
CZUL FIR / North America



MET'MAP, your aeronautical weather chart ! - Copyright ORBIFLY December 2007 - Disclaimer

ORBIFLY MET'MAP TEAM :

Programming & Development : Alexandra Zaïnal
Concept & original design : Baudouin d'Aumeries
Assistance for programming : Marc-Olivier Méhu
Technical & hardware support : Manuel Goepfert

Contact : metmap@orbifly.com




SOURCES & CREDITS :

   NOAA